createdAt,value
2023-05-05T00:00:32.604Z,30.06
2023-05-05T00:01:32.634Z,29.49
2023-05-05T00:02:32.788Z,27.94
2023-05-05T00:03:32.965Z,27.25
2023-05-05T00:04:33.719Z,29.50
2023-05-05T00:05:32.720Z,28.08
2023-05-05T00:06:32.748Z,27.85
2023-05-05T00:07:32.682Z,29.39
2023-05-05T00:08:33.809Z,25.00
2023-05-05T00:09:33.778Z,28.42
2023-05-05T00:10:32.769Z,30.57
2023-05-05T00:11:32.793Z,31.69
2023-05-05T00:12:32.756Z,29.44
2023-05-05T00:13:32.854Z,27.13
2023-05-05T00:14:33.830Z,34.11
2023-05-05T00:15:33.866Z,25.47
2023-05-05T00:16:32.869Z,28.18
2023-05-05T00:17:33.918Z,30.47
2023-05-05T00:18:32.915Z,26.17
2023-05-05T00:19:32.872Z,28.36
2023-05-05T00:20:32.832Z,31.33
2023-05-05T00:21:33.874Z,31.17
2023-05-05T00:22:33.918Z,31.23
2023-05-05T00:23:34.005Z,28.15
2023-05-05T00:24:32.991Z,31.77
2023-05-05T00:25:32.979Z,26.51
2023-05-05T00:26:32.968Z,27.54
2023-05-05T00:27:34.010Z,31.13
2023-05-05T00:28:32.958Z,29.49
2023-05-05T00:29:33.038Z,29.41
2023-05-05T00:30:33.945Z,28.39
2023-05-05T00:31:33.138Z,27.08
2023-05-05T00:32:33.007Z,32.22
2023-05-05T00:33:33.073Z,27.64
2023-05-05T00:34:32.995Z,32.84
2023-05-05T00:35:34.070Z,30.14
2023-05-05T00:36:33.060Z,32.43
2023-05-05T00:37:33.129Z,27.20
2023-05-05T00:38:33.096Z,25.13
2023-05-05T00:39:33.093Z,25.75
2023-05-05T00:40:33.222Z,30.01
2023-05-05T00:41:34.159Z,31.45
2023-05-05T00:42:33.108Z,29.27
2023-05-05T00:43:34.117Z,29.04
2023-05-05T00:44:34.222Z,27.60
2023-05-05T00:45:33.216Z,34.12
2023-05-05T00:46:33.185Z,29.13
2023-05-05T00:47:33.195Z,30.49
2023-05-05T00:48:34.227Z,32.80
2023-05-05T00:49:33.303Z,33.30
2023-05-05T00:50:33.270Z,29.53
2023-05-05T00:51:33.260Z,26.04
2023-05-05T00:52:34.224Z,26.18
2023-05-05T00:53:34.227Z,26.06
2023-05-05T00:54:33.337Z,28.68
2023-05-05T00:55:33.321Z,29.16
2023-05-05T00:56:33.297Z,25.43
2023-05-05T00:57:34.394Z,28.46
2023-05-05T00:58:34.368Z,28.74
2023-05-05T00:59:33.427Z,30.83
2023-05-05T01:00:34.337Z,29.16
2023-05-05T01:01:33.356Z,26.06
2023-05-05T01:02:34.417Z,32.83
2023-05-05T01:03:34.588Z,30.78
2023-05-05T01:04:34.454Z,31.64
2023-05-05T01:05:33.359Z,29.82
2023-05-05T01:06:34.463Z,30.95
2023-05-05T01:07:34.463Z,30.74
2023-05-05T01:08:33.403Z,26.15
2023-05-05T01:09:33.445Z,26.99
2023-05-05T01:10:33.467Z,27.15
2023-05-05T01:11:33.506Z,33.81
2023-05-05T01:12:33.489Z,26.48
2023-05-05T01:13:33.438Z,29.47
2023-05-05T01:14:33.457Z,30.22
2023-05-05T01:15:33.462Z,32.37
2023-05-05T01:16:34.614Z,29.83
2023-05-05T01:17:33.522Z,26.52
2023-05-05T01:18:34.482Z,31.30
2023-05-05T01:19:34.507Z,27.96
2023-05-05T01:20:34.514Z,27.76
2023-05-05T01:21:33.517Z,25.55
2023-05-05T01:22:34.621Z,25.47
2023-05-05T01:23:33.628Z,30.23
2023-05-05T01:24:33.671Z,25.55
2023-05-05T01:25:33.627Z,31.04
2023-05-05T01:26:34.635Z,30.60
2023-05-05T01:27:34.620Z,29.37
2023-05-05T01:28:34.703Z,30.99
2023-05-05T01:29:33.719Z,27.69
2023-05-05T01:30:33.698Z,28.19
2023-05-05T01:31:34.629Z,28.67
2023-05-05T01:32:34.730Z,31.23
2023-05-05T01:33:33.699Z,29.80
2023-05-05T01:34:33.648Z,29.55
2023-05-05T01:35:33.710Z,32.90
2023-05-05T01:36:33.709Z,29.73
2023-05-05T01:37:33.656Z,31.13
2023-05-05T01:38:34.663Z,25.00
2023-05-05T01:39:34.733Z,29.13
2023-05-05T01:40:34.672Z,30.13
2023-05-05T01:41:34.734Z,28.97
2023-05-05T01:42:33.756Z,29.84
2023-05-05T01:43:33.789Z,28.47
2023-05-05T01:44:33.814Z,28.97
2023-05-05T01:45:33.775Z,29.14
2023-05-05T01:46:33.820Z,32.23
2023-05-05T01:47:33.847Z,31.09
2023-05-05T01:48:33.819Z,32.50
2023-05-05T01:49:33.903Z,30.37
2023-05-05T01:50:33.848Z,28.17
2023-05-05T01:51:33.851Z,29.10
2023-05-05T01:52:33.886Z,32.15
2023-05-05T01:53:34.880Z,30.46
2023-05-05T01:54:33.983Z,31.41
2023-05-05T01:55:34.897Z,29.37
2023-05-05T01:56:33.938Z,28.38
2023-05-05T01:57:33.927Z,30.51
2023-05-05T01:58:33.965Z,31.97
2023-05-05T01:59:33.881Z,30.91
2023-05-05T02:00:34.898Z,31.62
2023-05-05T02:01:35.164Z,26.74
2023-05-05T02:02:35.104Z,25.43
2023-05-05T02:03:34.091Z,31.01
2023-05-05T02:04:33.998Z,28.12
2023-05-05T02:05:35.013Z,32.19
2023-05-05T02:06:33.973Z,29.05
2023-05-05T02:07:33.970Z,33.42
2023-05-05T02:08:33.983Z,32.78
2023-05-05T02:09:34.007Z,30.99
2023-05-05T02:10:34.030Z,28.89
2023-05-05T02:11:34.016Z,28.40
2023-05-05T02:12:35.072Z,29.14
2023-05-05T02:13:34.164Z,31.29
2023-05-05T02:14:34.152Z,32.21
2023-05-05T02:15:34.197Z,29.95
2023-05-05T02:16:34.183Z,29.27
2023-05-05T02:17:34.083Z,32.98
2023-05-05T02:18:35.185Z,28.95
2023-05-05T02:19:34.353Z,27.81
2023-05-05T02:20:35.219Z,28.26
2023-05-05T02:21:35.194Z,28.83
2023-05-05T02:22:34.194Z,31.41
2023-05-05T02:23:34.266Z,32.32
2023-05-05T02:24:34.221Z,27.64
2023-05-05T02:25:35.256Z,28.88
2023-05-05T02:26:34.194Z,29.97
2023-05-05T02:27:34.253Z,30.25
2023-05-05T02:28:34.307Z,30.68
2023-05-05T02:29:34.371Z,33.37
2023-05-05T02:30:34.320Z,29.41
2023-05-05T02:31:34.384Z,29.88
2023-05-05T02:32:35.342Z,28.55
2023-05-05T02:33:35.317Z,33.01
2023-05-05T02:34:34.353Z,31.50
2023-05-05T02:35:34.283Z,29.60
2023-05-05T02:36:34.288Z,27.93
2023-05-05T02:37:35.339Z,32.47
2023-05-05T02:38:35.321Z,31.42
2023-05-05T02:39:35.338Z,27.61
2023-05-05T02:40:35.379Z,32.78
2023-05-05T02:41:34.410Z,32.78
2023-05-05T02:42:34.402Z,30.02
2023-05-05T02:43:35.409Z,27.59
2023-05-05T02:44:35.387Z,28.48
2023-05-05T02:45:35.477Z,27.82
2023-05-05T02:46:34.452Z,32.26
2023-05-05T02:47:34.511Z,29.63
2023-05-05T02:48:34.422Z,27.89
2023-05-05T02:49:35.579Z,31.60
2023-05-05T02:50:34.465Z,28.26
2023-05-05T02:51:35.512Z,29.10
2023-05-05T02:52:35.547Z,30.57
2023-05-05T02:53:34.552Z,28.73
2023-05-05T02:54:34.543Z,29.26
2023-05-05T02:55:35.628Z,26.26
2023-05-05T02:56:34.574Z,32.24
2023-05-05T02:57:34.611Z,27.60
2023-05-05T02:58:34.552Z,33.34
2023-05-05T02:59:34.619Z,31.90
2023-05-05T03:00:34.674Z,31.32
2023-05-05T03:01:34.724Z,33.21
2023-05-05T03:02:34.834Z,36.02
2023-05-05T03:03:34.761Z,33.19
2023-05-05T03:04:35.660Z,32.78
2023-05-05T03:05:34.673Z,32.57
2023-05-05T03:06:35.769Z,30.15
2023-05-05T03:07:34.797Z,29.29
2023-05-05T03:08:35.731Z,33.74
2023-05-05T03:09:34.814Z,29.20
2023-05-05T03:10:34.752Z,31.65
2023-05-05T03:11:35.799Z,30.41
2023-05-05T03:12:34.877Z,29.22
2023-05-05T03:13:34.823Z,32.75
2023-05-05T03:14:34.841Z,28.02
2023-05-05T03:15:34.906Z,31.60
2023-05-05T03:16:34.890Z,26.90
2023-05-05T03:17:35.958Z,31.18
2023-05-05T03:18:34.849Z,28.58
2023-05-05T03:19:34.940Z,31.13
2023-05-05T03:20:35.036Z,30.67
2023-05-05T03:21:35.011Z,29.26
2023-05-05T03:22:36.008Z,30.63
2023-05-05T03:23:35.030Z,31.94
2023-05-05T03:24:34.992Z,33.41
2023-05-05T03:25:36.089Z,32.98
2023-05-05T03:26:35.089Z,31.57
2023-05-05T03:27:35.119Z,29.05
2023-05-05T03:28:35.036Z,33.28
2023-05-05T03:29:35.082Z,32.41
2023-05-05T03:30:35.085Z,28.77
2023-05-05T03:31:35.116Z,32.85
2023-05-05T03:32:36.213Z,30.33
2023-05-05T03:33:35.138Z,30.59
2023-05-05T03:34:35.151Z,30.98
2023-05-05T03:35:36.195Z,28.35
2023-05-05T03:36:35.277Z,31.48
2023-05-05T03:37:36.329Z,33.00
2023-05-05T03:38:35.324Z,29.16
2023-05-05T03:39:35.330Z,31.04
2023-05-05T03:40:43.535Z,30.00
2023-05-05T03:41:36.295Z,30.23
2023-05-05T03:42:36.290Z,30.14
2023-05-05T03:43:35.305Z,30.95
2023-05-05T03:44:35.292Z,30.44
2023-05-05T03:45:35.268Z,27.93
2023-05-05T03:46:36.300Z,29.29
2023-05-05T03:47:35.391Z,30.33
2023-05-05T03:48:35.248Z,30.62
2023-05-05T03:49:36.205Z,29.39
2023-05-05T03:50:36.259Z,32.12
2023-05-05T03:51:35.283Z,29.90
2023-05-05T03:52:35.219Z,35.13
2023-05-05T03:53:35.182Z,31.98
2023-05-05T03:54:36.175Z,29.92
2023-05-05T03:55:35.225Z,31.25
2023-05-05T03:56:35.184Z,29.84
2023-05-05T03:57:36.150Z,29.69
2023-05-05T03:58:36.158Z,33.50
2023-05-05T03:59:36.218Z,34.17
2023-05-05T04:00:35.264Z,35.07
2023-05-05T04:01:35.250Z,30.61
2023-05-05T04:02:35.310Z,31.69
2023-05-05T04:03:36.330Z,32.81
2023-05-05T04:04:36.343Z,29.26
2023-05-05T04:05:36.410Z,28.46
2023-05-05T04:06:36.376Z,25.00
2023-05-05T04:07:35.337Z,26.44
2023-05-05T04:08:35.449Z,28.33
2023-05-05T04:09:35.392Z,30.05
2023-05-05T04:10:35.438Z,29.80
2023-05-05T04:11:36.453Z,30.63
2023-05-05T04:12:36.506Z,27.58
2023-05-05T04:13:36.454Z,29.58
2023-05-05T04:14:36.509Z,26.19
2023-05-05T04:15:35.566Z,26.27
2023-05-05T04:16:36.588Z,28.79
2023-05-05T04:17:36.636Z,27.19
2023-05-05T04:18:35.566Z,26.76
2023-05-05T04:19:36.617Z,26.41
2023-05-05T04:20:36.668Z,27.77
2023-05-05T04:21:35.649Z,30.34
2023-05-05T04:22:36.738Z,29.52
2023-05-05T04:23:35.701Z,27.80
2023-05-05T04:24:35.748Z,26.66
2023-05-05T04:25:36.860Z,30.10
2023-05-05T04:26:35.830Z,29.73
2023-05-05T04:27:35.789Z,32.05
2023-05-05T04:28:36.870Z,29.10
2023-05-05T04:29:35.898Z,30.65
2023-05-05T04:30:36.790Z,32.04
2023-05-05T04:31:35.918Z,30.62
2023-05-05T04:32:36.979Z,31.88
2023-05-05T04:33:35.976Z,26.48
2023-05-05T04:34:36.010Z,30.04
2023-05-05T04:35:36.044Z,32.88
2023-05-05T04:36:36.078Z,30.86
2023-05-05T04:37:36.071Z,28.94
2023-05-05T04:38:37.116Z,29.56
2023-05-05T04:39:37.123Z,29.07
2023-05-05T04:40:37.127Z,30.16
2023-05-05T04:41:36.135Z,28.64
2023-05-05T04:42:36.184Z,28.93
2023-05-05T04:43:36.250Z,30.48
2023-05-05T04:44:36.284Z,29.47
2023-05-05T04:45:36.334Z,30.96
2023-05-05T04:46:36.370Z,32.34
2023-05-05T04:47:36.356Z,28.54
2023-05-05T04:48:37.375Z,30.20
2023-05-05T04:49:37.376Z,30.69
2023-05-05T04:50:36.366Z,28.25
2023-05-05T04:51:37.417Z,29.86
2023-05-05T04:52:36.413Z,29.30
2023-05-05T04:53:37.532Z,30.24
2023-05-05T04:54:36.451Z,29.45
2023-05-05T04:55:36.489Z,28.80
2023-05-05T04:56:36.624Z,28.34
2023-05-05T04:57:36.589Z,31.87
2023-05-05T04:58:36.585Z,27.05
2023-05-05T04:59:37.659Z,32.99
2023-05-05T05:00:36.638Z,31.48
2023-05-05T05:01:38.609Z,29.73
2023-05-05T05:02:36.773Z,31.70
2023-05-05T05:03:36.791Z,29.16
2023-05-05T05:04:36.743Z,33.44
2023-05-05T05:05:37.802Z,33.70
2023-05-05T05:06:37.882Z,34.48
2023-05-05T05:07:37.813Z,33.05
2023-05-05T05:08:36.819Z,36.88
2023-05-05T05:09:37.878Z,38.49
2023-05-05T05:10:36.862Z,31.23
2023-05-05T05:11:37.845Z,36.67
2023-05-05T05:12:36.989Z,35.52
2023-05-05T05:13:36.910Z,32.63
2023-05-05T05:14:36.927Z,35.11
2023-05-05T05:15:37.962Z,38.76
2023-05-05T05:16:36.917Z,32.84
2023-05-05T05:17:36.999Z,39.58
2023-05-05T05:18:36.913Z,36.67
2023-05-05T05:19:37.934Z,35.28
2023-05-05T05:20:37.000Z,34.19
2023-05-05T05:21:37.957Z,35.28
2023-05-05T05:22:37.011Z,34.07
2023-05-05T05:23:38.041Z,41.92
2023-05-05T05:24:37.086Z,37.22
2023-05-05T05:25:37.061Z,39.24
2023-05-05T05:26:37.087Z,45.65
2023-05-05T05:27:38.078Z,48.06
2023-05-05T05:28:37.204Z,47.97
2023-05-05T05:29:37.161Z,50.82
2023-05-05T05:30:37.197Z,46.97
2023-05-05T05:31:38.295Z,49.20
2023-05-05T05:32:37.180Z,51.99
2023-05-05T05:33:37.595Z,53.27
2023-05-05T05:34:37.649Z,53.61
2023-05-05T05:35:37.283Z,54.24
2023-05-05T05:36:37.286Z,59.40
2023-05-05T05:37:37.746Z,59.72
2023-05-05T05:38:39.068Z,61.27
2023-05-05T05:39:38.358Z,67.91
2023-05-05T05:40:37.331Z,67.21
2023-05-05T05:41:38.821Z,68.18
2023-05-05T05:42:37.348Z,71.89
2023-05-05T05:43:38.728Z,75.65
2023-05-05T05:44:37.468Z,87.45
2023-05-05T05:45:37.892Z,94.65
2023-05-05T05:46:38.231Z,142.87
2023-05-05T05:47:37.419Z,149.52
2023-05-05T05:48:37.452Z,151.08
2023-05-05T05:49:38.687Z,140.69
2023-05-05T05:50:38.631Z,147.29
2023-05-05T05:51:38.726Z,149.33
2023-05-05T05:52:37.609Z,152.53
2023-05-05T05:53:37.676Z,162.53
2023-05-05T05:54:38.985Z,191.46
2023-05-05T05:55:37.721Z,198.46
2023-05-05T05:56:38.452Z,213.44
2023-05-05T05:57:38.783Z,212.81
2023-05-05T05:58:37.940Z,208.70
2023-05-05T05:59:37.825Z,213.69
2023-05-05T06:00:39.088Z,216.22
2023-05-05T06:01:38.597Z,210.52
2023-05-05T06:02:38.504Z,223.64
2023-05-05T06:03:39.918Z,222.95
2023-05-05T06:04:39.227Z,231.97
2023-05-05T06:05:39.207Z,238.85
2023-05-05T06:06:40.886Z,244.95
2023-05-05T06:07:39.526Z,249.27
2023-05-05T06:08:37.942Z,249.78
2023-05-05T06:09:38.117Z,251.50
2023-05-05T06:10:37.851Z,254.35
2023-05-05T06:11:38.875Z,261.59
2023-05-05T06:12:37.844Z,271.60
2023-05-05T06:13:38.870Z,250.00
2023-05-05T06:14:38.850Z,250.00
2023-05-05T06:15:38.948Z,248.25
2023-05-05T06:16:38.820Z,248.45
2023-05-05T06:17:38.989Z,249.31
2023-05-05T06:18:37.812Z,247.98
2023-05-05T06:19:37.841Z,249.15
2023-05-05T06:20:37.849Z,249.97
2023-05-05T06:21:38.812Z,249.65
2023-05-05T06:22:37.756Z,248.71
2023-05-05T06:23:38.759Z,248.96
2023-05-05T06:24:37.816Z,246.43
2023-05-05T06:25:38.171Z,247.76
2023-05-05T06:26:37.833Z,249.60
2023-05-05T06:27:37.804Z,249.09
2023-05-05T06:28:37.788Z,250.00
2023-05-05T06:29:38.817Z,249.27
2023-05-05T06:30:39.243Z,248.74
2023-05-05T06:31:38.187Z,247.58
2023-05-05T06:32:45.713Z,250.00
2023-05-05T06:33:37.738Z,250.48
2023-05-05T06:34:37.795Z,251.36
2023-05-05T06:35:38.712Z,253.20
2023-05-05T06:36:37.756Z,256.14
2023-05-05T06:37:37.795Z,261.26
2023-05-05T06:38:38.798Z,248.92
2023-05-05T06:39:38.737Z,247.04
2023-05-05T06:40:38.107Z,246.20
2023-05-05T06:41:37.725Z,237.61
2023-05-05T06:42:37.772Z,234.74
2023-05-05T06:43:37.687Z,231.47
2023-05-05T06:44:38.650Z,231.00
2023-05-05T06:45:38.867Z,232.56
2023-05-05T06:46:38.877Z,228.26
2023-05-05T06:47:37.651Z,229.53
2023-05-05T06:48:37.782Z,229.90
2023-05-05T06:49:37.620Z,228.01
2023-05-05T06:50:37.590Z,226.96
2023-05-05T06:51:37.614Z,225.62
2023-05-05T06:52:38.821Z,222.00
2023-05-05T06:53:37.703Z,171.42
2023-05-05T06:54:38.705Z,153.09
2023-05-05T06:55:37.751Z,148.26
2023-05-05T06:56:37.664Z,159.14
2023-05-05T06:57:37.834Z,167.01
2023-05-05T06:58:46.142Z,169.71
2023-05-05T06:59:37.748Z,170.10
2023-05-05T07:00:38.760Z,171.30
2023-05-05T07:01:37.757Z,172.88
2023-05-05T07:02:37.887Z,174.18
2023-05-05T07:03:37.977Z,175.68
2023-05-05T07:04:38.050Z,175.69
2023-05-05T07:05:39.011Z,171.15
2023-05-05T07:06:38.053Z,178.64
2023-05-05T07:07:39.085Z,174.68
2023-05-05T07:08:38.198Z,168.88
2023-05-05T07:09:38.247Z,169.01
2023-05-05T07:10:39.254Z,168.24
2023-05-05T07:11:38.274Z,168.65
2023-05-05T07:12:38.381Z,165.23
2023-05-05T07:13:38.260Z,164.84
2023-05-05T07:14:39.335Z,164.23
2023-05-05T07:15:38.322Z,164.57
2023-05-05T07:16:38.382Z,163.14
2023-05-05T07:17:38.322Z,161.67
2023-05-05T07:18:38.296Z,162.57
2023-05-05T07:19:38.303Z,161.37
2023-05-05T07:20:39.477Z,160.06
2023-05-05T07:21:38.332Z,159.35
2023-05-05T07:22:38.338Z,160.07
2023-05-05T07:23:38.376Z,156.98
2023-05-05T07:24:39.466Z,158.64
2023-05-05T07:25:38.546Z,160.24
2023-05-05T07:26:38.603Z,160.25
2023-05-05T07:27:38.685Z,160.10
2023-05-05T07:28:38.750Z,160.05
2023-05-05T07:29:38.788Z,159.81
2023-05-05T07:30:38.815Z,161.02
2023-05-05T07:31:38.901Z,158.91
2023-05-05T07:32:38.952Z,158.20
2023-05-05T07:33:38.924Z,159.10
2023-05-05T07:34:39.034Z,158.73
2023-05-05T07:35:39.077Z,157.54
2023-05-05T07:36:39.226Z,159.16
2023-05-05T07:37:39.247Z,158.04
2023-05-05T07:38:39.194Z,156.99
2023-05-05T07:39:40.177Z,160.75
2023-05-05T07:40:40.193Z,162.30
2023-05-05T07:41:40.238Z,163.69
2023-05-05T07:42:39.238Z,165.11
2023-05-05T07:43:39.603Z,168.24
2023-05-05T07:44:39.398Z,169.27
2023-05-05T07:45:39.358Z,171.43
2023-05-05T07:46:40.335Z,174.60
2023-05-05T07:47:39.868Z,176.65
2023-05-05T07:48:39.434Z,175.72
2023-05-05T07:49:39.481Z,176.45
2023-05-05T07:50:40.461Z,175.46
2023-05-05T07:51:40.594Z,174.02
2023-05-05T07:53:39.582Z,176.71
2023-05-05T07:54:40.600Z,176.48
2023-05-05T07:55:39.608Z,178.76
2023-05-05T07:56:40.575Z,175.61
2023-05-05T07:57:40.675Z,175.43
2023-05-05T07:58:39.621Z,175.24
2023-05-05T07:59:39.599Z,176.17
2023-05-05T08:00:39.558Z,176.28
2023-05-05T08:01:39.574Z,174.23
2023-05-05T08:02:39.652Z,175.20
2023-05-05T08:03:39.698Z,173.62
2023-05-05T08:04:40.600Z,174.71
2023-05-05T08:05:39.576Z,170.62
2023-05-05T08:06:39.511Z,174.24
2023-05-05T08:07:39.576Z,172.68
2023-05-05T08:08:39.564Z,173.15
2023-05-05T08:09:39.515Z,170.53
2023-05-05T08:10:39.483Z,171.06
2023-05-05T08:11:40.522Z,172.73
2023-05-05T08:12:40.715Z,170.65
2023-05-05T08:13:39.518Z,170.66
2023-05-05T08:14:39.479Z,169.99
2023-05-05T08:15:40.574Z,170.27
2023-05-05T08:16:40.464Z,170.02
2023-05-05T08:17:40.461Z,169.79
2023-05-05T08:18:40.446Z,169.06
2023-05-05T08:19:39.445Z,168.51
2023-05-05T08:20:40.497Z,165.39
2023-05-05T08:21:40.409Z,168.25
2023-05-05T08:22:40.455Z,166.75
2023-05-05T08:23:40.536Z,168.15
2023-05-05T08:24:39.640Z,165.39
2023-05-05T08:25:39.505Z,165.39
2023-05-05T08:26:39.601Z,164.27
2023-05-05T08:27:40.749Z,164.03
2023-05-05T08:28:39.629Z,164.00
2023-05-05T08:29:39.712Z,163.33
2023-05-05T08:30:40.741Z,161.69
2023-05-05T08:31:40.909Z,161.02
2023-05-05T08:32:39.961Z,160.16
2023-05-05T08:33:40.869Z,159.94
2023-05-05T08:34:40.960Z,158.29
2023-05-05T08:35:40.018Z,159.75
2023-05-05T08:36:41.010Z,158.51
2023-05-05T08:37:40.080Z,157.15
2023-05-05T08:38:40.227Z,157.59
2023-05-05T08:39:40.175Z,154.94
2023-05-05T08:40:40.265Z,155.37
2023-05-05T08:41:41.341Z,154.15
2023-05-05T08:42:41.398Z,154.69
2023-05-05T08:43:40.866Z,156.27
2023-05-05T08:44:40.553Z,155.40
2023-05-05T08:45:40.451Z,163.13
2023-05-05T08:46:41.598Z,164.44
2023-05-05T08:47:40.702Z,173.35
2023-05-05T08:48:41.572Z,179.45
2023-05-05T08:49:41.676Z,170.20
2023-05-05T08:50:40.714Z,155.56
2023-05-05T08:51:40.796Z,149.17
2023-05-05T08:52:40.878Z,133.17
2023-05-05T08:53:41.944Z,146.84
2023-05-05T08:54:40.964Z,148.16
2023-05-05T08:55:42.004Z,138.15
2023-05-05T08:56:42.191Z,124.71
2023-05-05T08:57:41.132Z,123.97
2023-05-05T08:58:42.398Z,117.28
2023-05-05T08:59:42.197Z,122.05
2023-05-05T09:00:41.322Z,118.87
2023-05-05T09:01:42.261Z,120.13
2023-05-05T09:02:42.423Z,118.23
2023-05-05T09:03:41.429Z,121.87
2023-05-05T09:04:41.445Z,124.60
2023-05-05T09:05:41.488Z,123.29
2023-05-05T09:06:41.566Z,125.25
2023-05-05T09:07:41.693Z,125.47
2023-05-05T09:08:42.684Z,130.04
2023-05-05T09:09:42.788Z,131.54
2023-05-05T09:10:41.788Z,129.82
2023-05-05T09:11:42.875Z,131.31
2023-05-05T09:12:42.049Z,131.95
2023-05-05T09:13:42.994Z,132.33
2023-05-05T09:14:42.031Z,134.64
2023-05-05T09:15:42.087Z,129.85
2023-05-05T09:16:42.124Z,132.62
2023-05-05T09:17:42.184Z,134.34
2023-05-05T09:18:42.173Z,133.72
2023-05-05T09:19:42.238Z,134.70
2023-05-05T09:20:42.304Z,135.90
2023-05-05T09:21:42.343Z,136.30
2023-05-05T09:22:42.397Z,132.60
2023-05-05T09:23:42.372Z,135.32
2023-05-05T09:24:42.401Z,134.80
2023-05-05T09:25:42.518Z,136.29
2023-05-05T09:26:42.506Z,135.92
2023-05-05T09:27:42.565Z,134.71
2023-05-05T09:28:43.775Z,135.28
2023-05-05T09:29:43.735Z,137.03
2023-05-05T09:30:42.704Z,135.18
2023-05-05T09:31:43.717Z,135.33
2023-05-05T09:32:42.875Z,134.28
2023-05-05T09:33:42.853Z,135.38
2023-05-05T09:34:43.827Z,133.99
2023-05-05T09:35:42.948Z,135.08
2023-05-05T09:36:43.934Z,135.37
2023-05-05T09:37:42.949Z,135.39
2023-05-05T09:38:44.109Z,133.86
2023-05-05T09:39:44.030Z,133.89
2023-05-05T09:40:43.165Z,133.93
2023-05-05T09:41:43.192Z,133.85
2023-05-05T09:42:44.250Z,135.91
2023-05-05T09:43:43.312Z,136.19
2023-05-05T09:44:44.450Z,134.30
2023-05-05T09:45:43.297Z,135.98
2023-05-05T09:46:43.394Z,132.05
2023-05-05T09:47:43.372Z,135.56
2023-05-05T09:48:43.837Z,135.39
2023-05-05T09:49:44.516Z,133.79
2023-05-05T09:50:44.508Z,134.65
2023-05-05T09:51:43.454Z,138.82
2023-05-05T09:52:43.589Z,138.66
2023-05-05T09:53:43.912Z,143.39
2023-05-05T09:54:43.703Z,153.35
2023-05-05T09:55:43.720Z,154.01
2023-05-05T09:56:43.695Z,155.33
2023-05-05T09:57:43.667Z,157.41
2023-05-05T09:58:44.802Z,156.18
2023-05-05T09:59:43.811Z,158.57
2023-05-05T10:00:43.989Z,153.54
2023-05-05T10:01:43.922Z,153.87
2023-05-05T10:02:44.005Z,157.44
2023-05-05T10:03:44.026Z,156.03
2023-05-05T10:04:45.127Z,151.43
2023-05-05T10:05:44.079Z,142.86
2023-05-05T10:06:44.207Z,136.26
2023-05-05T10:07:44.264Z,138.41
2023-05-05T10:08:44.314Z,135.85
2023-05-05T10:09:44.313Z,129.22
2023-05-05T10:10:44.359Z,134.56
2023-05-05T10:11:44.429Z,128.98
2023-05-05T10:12:44.446Z,130.21
2023-05-05T10:13:45.578Z,122.72
2023-05-05T10:14:44.573Z,110.48
2023-05-05T10:15:45.612Z,102.74
2023-05-05T10:16:44.887Z,106.79
2023-05-05T10:17:57.916Z,111.12
2023-05-05T10:18:45.646Z,111.53
2023-05-05T10:19:44.661Z,111.59
2023-05-05T10:20:44.659Z,110.85
2023-05-05T10:21:44.669Z,114.59
2023-05-05T10:22:44.665Z,117.15
2023-05-05T10:23:44.604Z,115.39
2023-05-05T10:24:45.692Z,121.97
2023-05-05T10:25:45.625Z,121.56
2023-05-05T10:26:44.586Z,127.50
2023-05-05T10:27:44.644Z,126.45
2023-05-05T10:28:45.602Z,123.47
2023-05-05T10:29:44.661Z,126.12
2023-05-05T10:30:44.558Z,123.36
2023-05-05T10:31:45.616Z,135.93
2023-05-05T10:33:00.470Z,139.98
2023-05-05T10:33:45.618Z,140.40
2023-05-05T10:34:45.618Z,141.69
2023-05-05T10:35:45.602Z,140.96
2023-05-05T10:36:45.525Z,134.48
2023-05-05T10:37:44.554Z,127.56
2023-05-05T10:38:44.552Z,119.26
2023-05-05T10:39:44.530Z,119.95
2023-05-05T10:40:44.482Z,126.76
2023-05-05T10:41:45.539Z,134.50
2023-05-05T10:42:44.542Z,154.11
2023-05-05T10:43:44.480Z,157.51
2023-05-05T10:44:44.971Z,154.17
2023-05-05T10:45:44.512Z,144.47
2023-05-05T10:46:45.575Z,146.83
2023-05-05T10:47:44.642Z,145.07
2023-05-05T10:48:45.042Z,145.43
2023-05-05T10:49:44.456Z,139.26
2023-05-05T10:50:45.441Z,135.48
2023-05-05T10:51:44.449Z,131.74
2023-05-05T10:52:44.401Z,130.42
2023-05-05T10:53:44.476Z,128.96
2023-05-05T10:54:44.509Z,129.39
2023-05-05T10:55:44.450Z,130.91
2023-05-05T10:56:44.429Z,129.06
2023-05-05T10:57:44.402Z,128.56
2023-05-05T10:58:59.140Z,128.61
2023-05-05T10:59:45.447Z,128.87
2023-05-05T11:00:45.930Z,129.32
2023-05-05T11:01:45.336Z,129.77
2023-05-05T11:02:45.417Z,130.96
2023-05-05T11:03:44.370Z,132.02
2023-05-05T11:04:45.503Z,129.36
2023-05-05T11:05:44.376Z,128.53
2023-05-05T11:06:45.335Z,130.95
2023-05-05T11:07:44.367Z,129.20
2023-05-05T11:08:44.354Z,131.84
2023-05-05T11:09:44.322Z,131.86
2023-05-05T11:10:44.325Z,129.58
2023-05-05T11:11:44.293Z,130.47
2023-05-05T11:12:44.317Z,131.33
2023-05-05T11:13:44.261Z,130.02
2023-05-05T11:14:44.261Z,128.80
2023-05-05T11:15:45.340Z,128.78
2023-05-05T11:16:44.271Z,131.40
2023-05-05T11:17:44.268Z,127.81
2023-05-05T11:18:45.300Z,128.97
2023-05-05T11:19:44.319Z,130.45
2023-05-05T11:20:44.316Z,127.77
2023-05-05T11:21:45.287Z,127.93
2023-05-05T11:22:44.308Z,124.51
2023-05-05T11:23:44.294Z,125.35
2023-05-05T11:24:45.346Z,125.56
2023-05-05T11:25:44.389Z,127.07
2023-05-05T11:26:45.430Z,126.59
2023-05-05T11:27:44.473Z,128.34
2023-05-05T11:28:44.607Z,125.57
2023-05-05T11:29:45.520Z,125.61
2023-05-05T11:30:44.626Z,125.47
2023-05-05T11:31:44.576Z,120.87
2023-05-05T11:32:45.630Z,122.47
2023-05-05T11:33:44.677Z,123.46
2023-05-05T11:34:44.690Z,121.23
2023-05-05T11:35:45.849Z,125.26
2023-05-05T11:36:44.938Z,123.66
2023-05-05T11:37:44.807Z,120.91
2023-05-05T11:38:44.912Z,121.31
2023-05-05T11:39:45.473Z,121.35
2023-05-05T11:40:44.970Z,118.96
2023-05-05T11:41:44.934Z,112.20
2023-05-05T11:42:45.018Z,108.53
2023-05-05T11:43:45.083Z,107.31
2023-05-05T11:44:46.953Z,108.96
2023-05-05T11:45:46.106Z,108.38
2023-05-05T11:46:45.159Z,104.99
2023-05-05T11:47:45.211Z,110.37
2023-05-05T11:48:45.231Z,109.81
2023-05-05T11:49:45.295Z,106.24
2023-05-05T11:50:45.247Z,104.19
2023-05-05T11:51:46.299Z,106.12
2023-05-05T11:52:45.428Z,104.04
2023-05-05T11:53:46.491Z,102.23
2023-05-05T11:54:46.517Z,101.09
2023-05-05T11:55:45.537Z,96.42
2023-05-05T11:56:45.533Z,98.50
2023-05-05T11:57:45.578Z,98.13
2023-05-05T11:58:45.646Z,97.93
2023-05-05T11:59:46.752Z,96.90
2023-05-05T12:00:45.728Z,97.83
2023-05-05T12:01:45.691Z,100.87
2023-05-05T12:02:45.770Z,96.81
2023-05-05T12:03:46.798Z,96.69
2023-05-05T12:04:45.738Z,102.69
2023-05-05T12:05:45.646Z,102.67
2023-05-05T12:06:46.633Z,102.05
2023-05-05T12:07:45.567Z,102.90
2023-05-05T12:08:46.631Z,102.54
2023-05-05T12:09:46.545Z,103.58
2023-05-05T12:10:45.534Z,104.65
2023-05-05T12:11:45.705Z,105.81
2023-05-05T12:12:45.590Z,109.52
2023-05-05T12:13:45.510Z,109.54
2023-05-05T12:14:45.584Z,111.56
2023-05-05T12:15:45.596Z,107.07
2023-05-05T12:16:45.657Z,112.27
2023-05-05T12:17:45.555Z,107.98
2023-05-05T12:18:45.545Z,110.21
2023-05-05T12:19:45.513Z,112.24
2023-05-05T12:20:46.553Z,112.78
2023-05-05T12:21:45.521Z,112.18
2023-05-05T12:22:45.547Z,105.67
2023-05-05T12:23:45.491Z,106.54
2023-05-05T12:24:46.595Z,107.94
2023-05-05T12:25:46.513Z,110.85
2023-05-05T12:26:45.517Z,109.47
2023-05-05T12:27:45.522Z,110.11
2023-05-05T12:28:46.596Z,111.47
2023-05-05T12:29:45.487Z,111.97
2023-05-05T12:30:45.583Z,114.44
2023-05-05T12:31:45.513Z,113.56
2023-05-05T12:32:46.485Z,116.79
2023-05-05T12:33:45.407Z,115.40
2023-05-05T12:34:46.513Z,121.81
2023-05-05T12:35:45.506Z,122.14
2023-05-05T12:36:45.553Z,121.25
2023-05-05T12:37:45.602Z,120.65
2023-05-05T12:38:46.685Z,124.15
2023-05-05T12:39:46.743Z,122.03
2023-05-05T12:40:45.821Z,124.98